sensor_id;sensor_type;location;lat;lon;timestamp;P1;durP1;ratioP1;P2;durP2;ratioP2
3847;SDS011;1939;48.720;9.166;2022-11-25T00:01:51;17.10;;;6.67;;
3847;SDS011;1939;48.720;9.166;2022-11-25T00:04:16;11.70;;;7.07;;
3847;SDS011;1939;48.720;9.166;2022-11-25T00:06:41;14.90;;;6.57;;
3847;SDS011;1939;48.720;9.166;2022-11-25T00:09:08;15.67;;;7.20;;
3847;SDS011;1939;48.720;9.166;2022-11-25T00:11:34;12.07;;;7.33;;
3847;SDS011;1939;48.720;9.166;2022-11-25T00:14:00;9.80;;;6.40;;
3847;SDS011;1939;48.720;9.166;2022-11-25T00:16:26;13.40;;;7.43;;
3847;SDS011;1939;48.720;9.166;2022-11-25T00:18:52;16.47;;;6.90;;
3847;SDS011;1939;48.720;9.166;2022-11-25T00:21:18;15.80;;;7.97;;
3847;SDS011;1939;48.720;9.166;2022-11-25T00:23:43;24.93;;;8.00;;
3847;SDS011;1939;48.720;9.166;2022-11-25T00:26:10;15.87;;;7.27;;
3847;SDS011;1939;48.720;9.166;2022-11-25T00:28:36;14.10;;;8.20;;
3847;SDS011;1939;48.720;9.166;2022-11-25T00:31:08;16.57;;;8.20;;
3847;SDS011;1939;48.720;9.166;2022-11-25T00:33:33;18.23;;;8.57;;
3847;SDS011;1939;48.720;9.166;2022-11-25T00:36:00;26.83;;;8.97;;
3847;SDS011;1939;48.720;9.166;2022-11-25T00:38:25;13.57;;;7.60;;
3847;SDS011;1939;48.720;9.166;2022-11-25T00:40:53;26.40;;;8.10;;
3847;SDS011;1939;48.720;9.166;2022-11-25T00:43:38;14.30;;;8.50;;
3847;SDS011;1939;48.720;9.166;2022-11-25T00:46:22;25.13;;;8.40;;
3847;SDS011;1939;48.720;9.166;2022-11-25T00:48:47;19.20;;;7.93;;
3847;SDS011;1939;48.720;9.166;2022-11-25T00:51:13;18.70;;;8.10;;
3847;SDS011;1939;48.720;9.166;2022-11-25T00:53:38;20.87;;;8.60;;
3847;SDS011;1939;48.720;9.166;2022-11-25T00:56:03;16.07;;;8.37;;
3847;SDS011;1939;48.720;9.166;2022-11-25T00:58:37;15.77;;;7.57;;
3847;SDS011;1939;48.720;9.166;2022-11-25T01:01:03;23.50;;;9.80;;
3847;SDS011;1939;48.720;9.166;2022-11-25T01:03:28;16.47;;;9.57;;
3847;SDS011;1939;48.720;9.166;2022-11-25T01:05:53;12.80;;;7.80;;
3847;SDS011;1939;48.720;9.166;2022-11-25T01:08:18;23.47;;;8.53;;
3847;SDS011;1939;48.720;9.166;2022-11-25T01:10:43;13.13;;;7.37;;
3847;SDS011;1939;48.720;9.166;2022-11-25T01:13:09;16.57;;;8.03;;
3847;SDS011;1939;48.720;9.166;2022-11-25T01:15:35;16.30;;;7.70;;
3847;SDS011;1939;48.720;9.166;2022-11-25T01:18:00;17.00;;;7.37;;
3847;SDS011;1939;48.720;9.166;2022-11-25T01:20:25;18.60;;;8.40;;
3847;SDS011;1939;48.720;9.166;2022-11-25T01:22:51;19.47;;;7.23;;
3847;SDS011;1939;48.720;9.166;2022-11-25T01:25:17;13.83;;;7.87;;
3847;SDS011;1939;48.720;9.166;2022-11-25T01:27:42;13.50;;;7.43;;
3847;SDS011;1939;48.720;9.166;2022-11-25T01:30:07;11.63;;;6.50;;
3847;SDS011;1939;48.720;9.166;2022-11-25T01:32:33;14.87;;;5.80;;
3847;SDS011;1939;48.720;9.166;2022-11-25T01:34:58;5.60;;;4.97;;
3847;SDS011;1939;48.720;9.166;2022-11-25T01:37:23;8.90;;;4.97;;
3847;SDS011;1939;48.720;9.166;2022-11-25T01:39:48;16.80;;;5.90;;
3847;SDS011;1939;48.720;9.166;2022-11-25T01:42:13;9.73;;;4.83;;
3847;SDS011;1939;48.720;9.166;2022-11-25T01:44:39;15.23;;;6.20;;
3847;SDS011;1939;48.720;9.166;2022-11-25T01:47:12;9.80;;;5.40;;
3847;SDS011;1939;48.720;9.166;2022-11-25T01:54:34;13.37;;;4.83;;
3847;SDS011;1939;48.720;9.166;2022-11-25T01:57:02;9.27;;;5.37;;
3847;SDS011;1939;48.720;9.166;2022-11-25T01:59:30;10.17;;;4.60;;
3847;SDS011;1939;48.720;9.166;2022-11-25T02:01:57;14.20;;;5.70;;
3847;SDS011;1939;48.720;9.166;2022-11-25T02:04:23;6.43;;;4.37;;
3847;SDS011;1939;48.720;9.166;2022-11-25T02:06:51;8.73;;;4.10;;
3847;SDS011;1939;48.720;9.166;2022-11-25T02:09:17;5.80;;;4.70;;
3847;SDS011;1939;48.720;9.166;2022-11-25T02:11:43;11.40;;;5.17;;
3847;SDS011;1939;48.720;9.166;2022-11-25T02:14:08;10.53;;;5.10;;
3847;SDS011;1939;48.720;9.166;2022-11-25T02:16:35;16.27;;;6.40;;
3847;SDS011;1939;48.720;9.166;2022-11-25T02:19:00;10.87;;;5.40;;
3847;SDS011;1939;48.720;9.166;2022-11-25T02:21:33;9.50;;;6.23;;
3847;SDS011;1939;48.720;9.166;2022-11-25T02:26:29;16.80;;;7.13;;
3847;SDS011;1939;48.720;9.166;2022-11-25T02:28:55;17.40;;;6.53;;
3847;SDS011;1939;48.720;9.166;2022-11-25T02:31:21;13.93;;;7.73;;
3847;SDS011;1939;48.720;9.166;2022-11-25T02:33:46;20.80;;;6.40;;
3847;SDS011;1939;48.720;9.166;2022-11-25T02:36:12;15.23;;;7.13;;
3847;SDS011;1939;48.720;9.166;2022-11-25T02:38:42;15.13;;;6.40;;
3847;SDS011;1939;48.720;9.166;2022-11-25T02:41:11;12.40;;;6.77;;
3847;SDS011;1939;48.720;9.166;2022-11-25T02:43:38;11.47;;;7.93;;
3847;SDS011;1939;48.720;9.166;2022-11-25T02:46:04;11.40;;;7.40;;
3847;SDS011;1939;48.720;9.166;2022-11-25T02:48:31;12.50;;;7.03;;
3847;SDS011;1939;48.720;9.166;2022-11-25T02:50:56;11.23;;;7.10;;
3847;SDS011;1939;48.720;9.166;2022-11-25T02:53:22;29.27;;;7.30;;
3847;SDS011;1939;48.720;9.166;2022-11-25T02:55:47;13.53;;;7.33;;
3847;SDS011;1939;48.720;9.166;2022-11-25T02:58:13;16.70;;;6.87;;
3847;SDS011;1939;48.720;9.166;2022-11-25T03:00:40;11.87;;;6.80;;
3847;SDS011;1939;48.720;9.166;2022-11-25T03:03:06;17.70;;;6.53;;
3847;SDS011;1939;48.720;9.166;2022-11-25T03:05:31;11.10;;;6.83;;
3847;SDS011;1939;48.720;9.166;2022-11-25T03:07:56;16.83;;;8.07;;
3847;SDS011;1939;48.720;9.166;2022-11-25T03:10:22;16.30;;;6.77;;
3847;SDS011;1939;48.720;9.166;2022-11-25T03:12:47;11.23;;;5.83;;
3847;SDS011;1939;48.720;9.166;2022-11-25T03:15:13;12.23;;;7.07;;
3847;SDS011;1939;48.720;9.166;2022-11-25T03:17:38;20.73;;;7.93;;
3847;SDS011;1939;48.720;9.166;2022-11-25T03:20:04;11.23;;;6.40;;
3847;SDS011;1939;48.720;9.166;2022-11-25T03:22:30;11.33;;;6.37;;
3847;SDS011;1939;48.720;9.166;2022-11-25T03:24:55;24.83;;;8.80;;
3847;SDS011;1939;48.720;9.166;2022-11-25T03:27:20;17.10;;;7.80;;
3847;SDS011;1939;48.720;9.166;2022-11-25T03:29:45;16.20;;;8.20;;
3847;SDS011;1939;48.720;9.166;2022-11-25T03:32:11;16.50;;;8.23;;
3847;SDS011;1939;48.720;9.166;2022-11-25T03:34:36;20.73;;;8.07;;
3847;SDS011;1939;48.720;9.166;2022-11-25T03:37:01;13.87;;;6.93;;
3847;SDS011;1939;48.720;9.166;2022-11-25T03:39:27;17.80;;;8.50;;
3847;SDS011;1939;48.720;9.166;2022-11-25T03:41:52;14.27;;;8.20;;
3847;SDS011;1939;48.720;9.166;2022-11-25T03:44:17;16.00;;;8.70;;
3847;SDS011;1939;48.720;9.166;2022-11-25T03:46:42;15.20;;;8.57;;
3847;SDS011;1939;48.720;9.166;2022-11-25T03:49:07;22.63;;;8.80;;
3847;SDS011;1939;48.720;9.166;2022-11-25T03:51:33;25.47;;;10.93;;
3847;SDS011;1939;48.720;9.166;2022-11-25T03:53:58;13.27;;;7.73;;
3847;SDS011;1939;48.720;9.166;2022-11-25T03:56:23;19.40;;;9.03;;
3847;SDS011;1939;48.720;9.166;2022-11-25T03:58:48;13.67;;;7.33;;
3847;SDS011;1939;48.720;9.166;2022-11-25T04:01:13;21.77;;;8.00;;
3847;SDS011;1939;48.720;9.166;2022-11-25T04:03:39;7.10;;;5.93;;
3847;SDS011;1939;48.720;9.166;2022-11-25T04:06:04;11.07;;;7.53;;
3847;SDS011;1939;48.720;9.166;2022-11-25T04:08:29;14.77;;;6.77;;
3847;SDS011;1939;48.720;9.166;2022-11-25T04:10:54;15.10;;;6.70;;
3847;SDS011;1939;48.720;9.166;2022-11-25T04:13:20;15.53;;;7.10;;
3847;SDS011;1939;48.720;9.166;2022-11-25T04:15:45;12.53;;;6.97;;
3847;SDS011;1939;48.720;9.166;2022-11-25T04:18:13;16.70;;;7.97;;
3847;SDS011;1939;48.720;9.166;2022-11-25T04:20:39;17.93;;;8.70;;
3847;SDS011;1939;48.720;9.166;2022-11-25T04:23:04;15.13;;;7.97;;
3847;SDS011;1939;48.720;9.166;2022-11-25T04:25:30;20.97;;;8.73;;
3847;SDS011;1939;48.720;9.166;2022-11-25T04:27:55;16.97;;;8.90;;
3847;SDS011;1939;48.720;9.166;2022-11-25T04:30:20;23.53;;;9.10;;
3847;SDS011;1939;48.720;9.166;2022-11-25T04:32:46;14.77;;;8.57;;
3847;SDS011;1939;48.720;9.166;2022-11-25T04:35:11;15.37;;;7.67;;
3847;SDS011;1939;48.720;9.166;2022-11-25T04:37:36;17.33;;;9.30;;
3847;SDS011;1939;48.720;9.166;2022-11-25T04:40:01;19.60;;;9.60;;
3847;SDS011;1939;48.720;9.166;2022-11-25T04:42:27;21.30;;;10.03;;
3847;SDS011;1939;48.720;9.166;2022-11-25T04:45:07;24.13;;;9.30;;
3847;SDS011;1939;48.720;9.166;2022-11-25T04:47:32;25.97;;;11.17;;
3847;SDS011;1939;48.720;9.166;2022-11-25T04:49:57;16.07;;;10.03;;
3847;SDS011;1939;48.720;9.166;2022-11-25T04:52:23;18.37;;;9.57;;
3847;SDS011;1939;48.720;9.166;2022-11-25T04:54:48;28.23;;;10.70;;
3847;SDS011;1939;48.720;9.166;2022-11-25T04:57:13;18.13;;;11.00;;
3847;SDS011;1939;48.720;9.166;2022-11-25T04:59:39;21.97;;;10.67;;
3847;SDS011;1939;48.720;9.166;2022-11-25T05:02:20;19.97;;;9.70;;
3847;SDS011;1939;48.720;9.166;2022-11-25T05:04:46;17.70;;;9.10;;
3847;SDS011;1939;48.720;9.166;2022-11-25T05:07:12;18.10;;;11.00;;
3847;SDS011;1939;48.720;9.166;2022-11-25T05:09:38;28.90;;;10.23;;
3847;SDS011;1939;48.720;9.166;2022-11-25T05:12:04;14.63;;;9.13;;
3847;SDS011;1939;48.720;9.166;2022-11-25T05:14:29;21.13;;;9.07;;
3847;SDS011;1939;48.720;9.166;2022-11-25T05:16:55;18.10;;;9.03;;
3847;SDS011;1939;48.720;9.166;2022-11-25T05:19:20;21.53;;;9.03;;
3847;SDS011;1939;48.720;9.166;2022-11-25T05:21:46;23.33;;;10.33;;
3847;SDS011;1939;48.720;9.166;2022-11-25T05:24:11;16.63;;;9.27;;
3847;SDS011;1939;48.720;9.166;2022-11-25T05:26:36;18.03;;;8.50;;
3847;SDS011;1939;48.720;9.166;2022-11-25T05:29:01;18.73;;;8.80;;
3847;SDS011;1939;48.720;9.166;2022-11-25T05:31:27;17.87;;;8.80;;
3847;SDS011;1939;48.720;9.166;2022-11-25T05:33:52;15.50;;;8.87;;
3847;SDS011;1939;48.720;9.166;2022-11-25T05:36:17;17.33;;;8.90;;
3847;SDS011;1939;48.720;9.166;2022-11-25T05:38:43;15.73;;;9.00;;
3847;SDS011;1939;48.720;9.166;2022-11-25T05:41:09;15.83;;;8.60;;
3847;SDS011;1939;48.720;9.166;2022-11-25T05:43:35;24.90;;;10.50;;
3847;SDS011;1939;48.720;9.166;2022-11-25T05:46:03;40.47;;;19.97;;
3847;SDS011;1939;48.720;9.166;2022-11-25T05:48:28;24.67;;;11.70;;
3847;SDS011;1939;48.720;9.166;2022-11-25T05:50:53;26.77;;;14.07;;
3847;SDS011;1939;48.720;9.166;2022-11-25T05:53:18;21.83;;;12.20;;
3847;SDS011;1939;48.720;9.166;2022-11-25T05:55:48;22.80;;;10.83;;
3847;SDS011;1939;48.720;9.166;2022-11-25T05:58:17;20.57;;;9.93;;
3847;SDS011;1939;48.720;9.166;2022-11-25T06:00:42;16.97;;;10.20;;
3847;SDS011;1939;48.720;9.166;2022-11-25T06:03:07;20.57;;;11.10;;
3847;SDS011;1939;48.720;9.166;2022-11-25T06:05:33;18.87;;;9.43;;
3847;SDS011;1939;48.720;9.166;2022-11-25T06:07:58;19.80;;;10.87;;
3847;SDS011;1939;48.720;9.166;2022-11-25T06:10:24;16.47;;;9.90;;
3847;SDS011;1939;48.720;9.166;2022-11-25T06:12:49;16.93;;;9.90;;
3847;SDS011;1939;48.720;9.166;2022-11-25T06:15:14;14.10;;;9.90;;
3847;SDS011;1939;48.720;9.166;2022-11-25T06:17:39;14.30;;;9.27;;
3847;SDS011;1939;48.720;9.166;2022-11-25T06:20:05;23.80;;;9.30;;
3847;SDS011;1939;48.720;9.166;2022-11-25T06:22:31;17.87;;;9.17;;
3847;SDS011;1939;48.720;9.166;2022-11-25T06:24:56;14.10;;;9.50;;
3847;SDS011;1939;48.720;9.166;2022-11-25T06:27:21;13.37;;;7.53;;
3847;SDS011;1939;48.720;9.166;2022-11-25T06:29:46;23.13;;;8.30;;
3847;SDS011;1939;48.720;9.166;2022-11-25T06:32:11;13.87;;;8.30;;
3847;SDS011;1939;48.720;9.166;2022-11-25T06:34:37;22.10;;;14.17;;
3847;SDS011;1939;48.720;9.166;2022-11-25T06:37:06;25.63;;;13.00;;
3847;SDS011;1939;48.720;9.166;2022-11-25T06:39:31;20.83;;;11.00;;
3847;SDS011;1939;48.720;9.166;2022-11-25T06:41:57;21.93;;;14.20;;
3847;SDS011;1939;48.720;9.166;2022-11-25T06:44:22;21.67;;;13.33;;
3847;SDS011;1939;48.720;9.166;2022-11-25T06:46:47;23.13;;;9.40;;
3847;SDS011;1939;48.720;9.166;2022-11-25T06:49:12;24.27;;;11.40;;
3847;SDS011;1939;48.720;9.166;2022-11-25T06:51:37;21.97;;;11.13;;
3847;SDS011;1939;48.720;9.166;2022-11-25T06:54:03;20.03;;;10.87;;
3847;SDS011;1939;48.720;9.166;2022-11-25T06:56:28;18.33;;;9.67;;
3847;SDS011;1939;48.720;9.166;2022-11-25T06:58:53;27.93;;;9.73;;
3847;SDS011;1939;48.720;9.166;2022-11-25T07:01:20;19.10;;;10.17;;
3847;SDS011;1939;48.720;9.166;2022-11-25T07:03:46;16.07;;;9.10;;
3847;SDS011;1939;48.720;9.166;2022-11-25T07:06:12;36.60;;;16.73;;
3847;SDS011;1939;48.720;9.166;2022-11-25T07:08:38;30.33;;;13.57;;
3847;SDS011;1939;48.720;9.166;2022-11-25T07:11:07;23.13;;;13.70;;
3847;SDS011;1939;48.720;9.166;2022-11-25T07:13:32;18.33;;;11.33;;
3847;SDS011;1939;48.720;9.166;2022-11-25T07:16:04;19.60;;;11.70;;
3847;SDS011;1939;48.720;9.166;2022-11-25T07:18:34;16.50;;;10.60;;
3847;SDS011;1939;48.720;9.166;2022-11-25T07:23:27;17.07;;;10.00;;
3847;SDS011;1939;48.720;9.166;2022-11-25T07:25:52;15.30;;;9.30;;
3847;SDS011;1939;48.720;9.166;2022-11-25T07:28:18;23.70;;;9.87;;
3847;SDS011;1939;48.720;9.166;2022-11-25T07:30:43;21.33;;;10.00;;
3847;SDS011;1939;48.720;9.166;2022-11-25T07:33:08;18.27;;;11.23;;
3847;SDS011;1939;48.720;9.166;2022-11-25T07:35:33;16.60;;;9.10;;
3847;SDS011;1939;48.720;9.166;2022-11-25T07:37:58;18.80;;;8.70;;
3847;SDS011;1939;48.720;9.166;2022-11-25T07:40:23;17.50;;;7.97;;
3847;SDS011;1939;48.720;9.166;2022-11-25T07:42:49;14.73;;;8.03;;
3847;SDS011;1939;48.720;9.166;2022-11-25T07:45:14;22.13;;;9.33;;
3847;SDS011;1939;48.720;9.166;2022-11-25T07:47:39;15.50;;;9.07;;
3847;SDS011;1939;48.720;9.166;2022-11-25T07:50:04;22.47;;;11.13;;
3847;SDS011;1939;48.720;9.166;2022-11-25T07:52:30;24.97;;;15.80;;
3847;SDS011;1939;48.720;9.166;2022-11-25T07:54:55;25.83;;;17.50;;
3847;SDS011;1939;48.720;9.166;2022-11-25T07:57:20;24.93;;;14.80;;
3847;SDS011;1939;48.720;9.166;2022-11-25T07:59:45;18.33;;;12.13;;
3847;SDS011;1939;48.720;9.166;2022-11-25T08:02:11;18.60;;;10.53;;
3847;SDS011;1939;48.720;9.166;2022-11-25T08:04:36;18.47;;;9.20;;
3847;SDS011;1939;48.720;9.166;2022-11-25T08:07:01;18.43;;;8.87;;
3847;SDS011;1939;48.720;9.166;2022-11-25T08:09:27;14.47;;;7.80;;
3847;SDS011;1939;48.720;9.166;2022-11-25T08:11:52;18.77;;;7.10;;
3847;SDS011;1939;48.720;9.166;2022-11-25T08:14:17;10.97;;;6.47;;
3847;SDS011;1939;48.720;9.166;2022-11-25T08:16:43;14.43;;;6.27;;
3847;SDS011;1939;48.720;9.166;2022-11-25T08:19:09;16.37;;;5.80;;
3847;SDS011;1939;48.720;9.166;2022-11-25T08:21:36;6.57;;;4.50;;
3847;SDS011;1939;48.720;9.166;2022-11-25T08:24:01;8.00;;;4.47;;
3847;SDS011;1939;48.720;9.166;2022-11-25T08:26:31;7.07;;;4.70;;
3847;SDS011;1939;48.720;9.166;2022-11-25T08:28:58;8.40;;;4.27;;
3847;SDS011;1939;48.720;9.166;2022-11-25T08:31:24;8.63;;;4.63;;
3847;SDS011;1939;48.720;9.166;2022-11-25T08:33:50;13.30;;;5.60;;
3847;SDS011;1939;48.720;9.166;2022-11-25T08:36:16;12.33;;;6.43;;
3847;SDS011;1939;48.720;9.166;2022-11-25T08:38:42;8.70;;;5.17;;
3847;SDS011;1939;48.720;9.166;2022-11-25T08:41:08;11.20;;;5.53;;
3847;SDS011;1939;48.720;9.166;2022-11-25T08:43:34;13.00;;;6.50;;
3847;SDS011;1939;48.720;9.166;2022-11-25T08:45:59;11.83;;;6.40;;
3847;SDS011;1939;48.720;9.166;2022-11-25T08:48:24;8.00;;;4.30;;
3847;SDS011;1939;48.720;9.166;2022-11-25T08:50:51;9.33;;;4.70;;
3847;SDS011;1939;48.720;9.166;2022-11-25T08:53:17;14.33;;;5.50;;
3847;SDS011;1939;48.720;9.166;2022-11-25T08:55:42;7.90;;;4.50;;
3847;SDS011;1939;48.720;9.166;2022-11-25T08:58:08;9.33;;;4.60;;
3847;SDS011;1939;48.720;9.166;2022-11-25T09:00:37;8.13;;;4.90;;
3847;SDS011;1939;48.720;9.166;2022-11-25T09:03:02;8.90;;;3.83;;
3847;SDS011;1939;48.720;9.166;2022-11-25T09:05:28;11.70;;;4.10;;
3847;SDS011;1939;48.720;9.166;2022-11-25T09:07:59;5.67;;;3.53;;
3847;SDS011;1939;48.720;9.166;2022-11-25T09:10:24;11.37;;;3.87;;
3847;SDS011;1939;48.720;9.166;2022-11-25T09:12:50;9.97;;;4.07;;
3847;SDS011;1939;48.720;9.166;2022-11-25T09:15:15;5.63;;;3.90;;
3847;SDS011;1939;48.720;9.166;2022-11-25T09:17:40;15.53;;;4.43;;
3847;SDS011;1939;48.720;9.166;2022-11-25T09:20:05;6.90;;;4.47;;
3847;SDS011;1939;48.720;9.166;2022-11-25T09:22:31;8.57;;;3.50;;
3847;SDS011;1939;48.720;9.166;2022-11-25T09:24:56;7.77;;;3.47;;
3847;SDS011;1939;48.720;9.166;2022-11-25T09:27:21;8.33;;;4.30;;
3847;SDS011;1939;48.720;9.166;2022-11-25T09:29:46;6.30;;;3.63;;
3847;SDS011;1939;48.720;9.166;2022-11-25T09:32:12;4.73;;;3.37;;
3847;SDS011;1939;48.720;9.166;2022-11-25T09:34:37;18.17;;;4.13;;
3847;SDS011;1939;48.720;9.166;2022-11-25T09:37:02;5.60;;;3.43;;
3847;SDS011;1939;48.720;9.166;2022-11-25T09:39:27;6.67;;;4.10;;
3847;SDS011;1939;48.720;9.166;2022-11-25T09:47:46;11.87;;;4.10;;
3847;SDS011;1939;48.720;9.166;2022-11-25T09:50:23;7.87;;;3.40;;
3847;SDS011;1939;48.720;9.166;2022-11-25T09:52:57;7.00;;;3.80;;
3847;SDS011;1939;48.720;9.166;2022-11-25T09:55:24;6.73;;;3.20;;
3847;SDS011;1939;48.720;9.166;2022-11-25T09:58:02;7.07;;;4.13;;
3847;SDS011;1939;48.720;9.166;2022-11-25T10:00:37;11.20;;;3.80;;
3847;SDS011;1939;48.720;9.166;2022-11-25T10:03:06;8.63;;;4.43;;
3847;SDS011;1939;48.720;9.166;2022-11-25T10:05:35;9.90;;;3.50;;
3847;SDS011;1939;48.720;9.166;2022-11-25T10:08:05;5.63;;;3.73;;
3847;SDS011;1939;48.720;9.166;2022-11-25T10:10:36;5.73;;;3.60;;
3847;SDS011;1939;48.720;9.166;2022-11-25T10:13:03;9.33;;;4.10;;
3847;SDS011;1939;48.720;9.166;2022-11-25T10:15:33;7.50;;;3.27;;
3847;SDS011;1939;48.720;9.166;2022-11-25T10:18:00;9.30;;;4.13;;
3847;SDS011;1939;48.720;9.166;2022-11-25T10:20:28;8.70;;;3.93;;
3847;SDS011;1939;48.720;9.166;2022-11-25T10:23:04;10.07;;;4.20;;
3847;SDS011;1939;48.720;9.166;2022-11-25T10:25:40;5.93;;;3.37;;
3847;SDS011;1939;48.720;9.166;2022-11-25T10:30:59;7.70;;;4.20;;
3847;SDS011;1939;48.720;9.166;2022-11-25T10:33:31;4.90;;;3.50;;
3847;SDS011;1939;48.720;9.166;2022-11-25T10:35:57;10.10;;;2.93;;
3847;SDS011;1939;48.720;9.166;2022-11-25T10:41:11;7.97;;;2.70;;
3847;SDS011;1939;48.720;9.166;2022-11-25T10:43:39;10.60;;;2.80;;
3847;SDS011;1939;48.720;9.166;2022-11-25T10:48:39;4.67;;;2.50;;
3847;SDS011;1939;48.720;9.166;2022-11-25T10:51:18;6.70;;;2.90;;
3847;SDS011;1939;48.720;9.166;2022-11-25T10:54:07;7.00;;;3.00;;
3847;SDS011;1939;48.720;9.166;2022-11-25T10:56:34;4.40;;;2.50;;
3847;SDS011;1939;48.720;9.166;2022-11-25T10:59:11;4.53;;;2.33;;
3847;SDS011;1939;48.720;9.166;2022-11-25T11:01:37;2.73;;;2.10;;
3847;SDS011;1939;48.720;9.166;2022-11-25T11:04:03;6.03;;;2.90;;
3847;SDS011;1939;48.720;9.166;2022-11-25T11:06:31;5.50;;;3.00;;
3847;SDS011;1939;48.720;9.166;2022-11-25T11:08:56;11.63;;;3.50;;
3847;SDS011;1939;48.720;9.166;2022-11-25T11:11:22;4.13;;;2.20;;
3847;SDS011;1939;48.720;9.166;2022-11-25T11:13:48;5.50;;;2.73;;
3847;SDS011;1939;48.720;9.166;2022-11-25T11:16:35;3.00;;;2.20;;
3847;SDS011;1939;48.720;9.166;2022-11-25T11:19:00;9.40;;;2.80;;
3847;SDS011;1939;48.720;9.166;2022-11-25T11:21:33;7.80;;;2.80;;
3847;SDS011;1939;48.720;9.166;2022-11-25T11:23:59;9.27;;;2.10;;
3847;SDS011;1939;48.720;9.166;2022-11-25T11:31:30;4.60;;;1.90;;
3847;SDS011;1939;48.720;9.166;2022-11-25T11:34:02;5.30;;;2.40;;
3847;SDS011;1939;48.720;9.166;2022-11-25T11:41:34;5.90;;;2.90;;
3847;SDS011;1939;48.720;9.166;2022-11-25T11:46:50;5.77;;;2.53;;
3847;SDS011;1939;48.720;9.166;2022-11-25T11:49:40;8.60;;;3.00;;
3847;SDS011;1939;48.720;9.166;2022-11-25T11:52:22;4.97;;;2.40;;
3847;SDS011;1939;48.720;9.166;2022-11-25T11:54:52;5.53;;;2.30;;
3847;SDS011;1939;48.720;9.166;2022-11-25T11:57:30;5.13;;;2.13;;
3847;SDS011;1939;48.720;9.166;2022-11-25T12:00:00;5.40;;;3.43;;
3847;SDS011;1939;48.720;9.166;2022-11-25T12:02:37;7.03;;;2.60;;
3847;SDS011;1939;48.720;9.166;2022-11-25T12:12:51;6.80;;;2.97;;
3847;SDS011;1939;48.720;9.166;2022-11-25T12:15:23;4.27;;;2.10;;
3847;SDS011;1939;48.720;9.166;2022-11-25T12:17:56;6.60;;;2.83;;
3847;SDS011;1939;48.720;9.166;2022-11-25T12:20:35;5.23;;;2.10;;
3847;SDS011;1939;48.720;9.166;2022-11-25T12:25:30;5.50;;;2.60;;
3847;SDS011;1939;48.720;9.166;2022-11-25T12:28:00;9.23;;;2.80;;
3847;SDS011;1939;48.720;9.166;2022-11-25T12:30:33;5.30;;;2.40;;
3847;SDS011;1939;48.720;9.166;2022-11-25T12:43:06;8.83;;;3.20;;
3847;SDS011;1939;48.720;9.166;2022-11-25T12:45:33;10.17;;;2.50;;
3847;SDS011;1939;48.720;9.166;2022-11-25T12:47:59;7.50;;;3.10;;
3847;SDS011;1939;48.720;9.166;2022-11-25T12:55:51;8.73;;;3.07;;
3847;SDS011;1939;48.720;9.166;2022-11-25T13:00:49;9.60;;;4.47;;
3847;SDS011;1939;48.720;9.166;2022-11-25T13:08:54;6.97;;;2.63;;
3847;SDS011;1939;48.720;9.166;2022-11-25T13:11:25;10.47;;;3.87;;
3847;SDS011;1939;48.720;9.166;2022-11-25T13:16:22;8.43;;;4.97;;
3847;SDS011;1939;48.720;9.166;2022-11-25T13:18:48;8.43;;;3.67;;
3847;SDS011;1939;48.720;9.166;2022-11-25T13:21:14;13.23;;;8.50;;
3847;SDS011;1939;48.720;9.166;2022-11-25T13:23:42;26.27;;;13.60;;
3847;SDS011;1939;48.720;9.166;2022-11-25T13:28:52;14.20;;;8.37;;
3847;SDS011;1939;48.720;9.166;2022-11-25T13:31:19;14.33;;;4.67;;
3847;SDS011;1939;48.720;9.166;2022-11-25T13:36:15;7.80;;;4.10;;
3847;SDS011;1939;48.720;9.166;2022-11-25T13:46:41;14.57;;;8.00;;
3847;SDS011;1939;48.720;9.166;2022-11-25T13:49:26;11.80;;;5.90;;
3847;SDS011;1939;48.720;9.166;2022-11-25T13:51:56;8.50;;;3.50;;
3847;SDS011;1939;48.720;9.166;2022-11-25T13:54:30;4.53;;;2.97;;
3847;SDS011;1939;48.720;9.166;2022-11-25T13:57:39;8.50;;;3.40;;
3847;SDS011;1939;48.720;9.166;2022-11-25T13:59:53;5.73;;;3.30;;
3847;SDS011;1939;48.720;9.166;2022-11-25T14:04:56;7.80;;;3.07;;
3847;SDS011;1939;48.720;9.166;2022-11-25T14:07:29;6.97;;;3.20;;
3847;SDS011;1939;48.720;9.166;2022-11-25T14:10:02;9.20;;;3.43;;
3847;SDS011;1939;48.720;9.166;2022-11-25T14:17:52;13.17;;;5.20;;
3847;SDS011;1939;48.720;9.166;2022-11-25T14:20:29;5.67;;;3.20;;
3847;SDS011;1939;48.720;9.166;2022-11-25T14:25:51;7.30;;;3.07;;
3847;SDS011;1939;48.720;9.166;2022-11-25T14:28:20;9.70;;;2.30;;
3847;SDS011;1939;48.720;9.166;2022-11-25T14:30:48;10.07;;;3.47;;
3847;SDS011;1939;48.720;9.166;2022-11-25T14:33:15;10.40;;;2.50;;
3847;SDS011;1939;48.720;9.166;2022-11-25T14:35:43;3.37;;;2.00;;
3847;SDS011;1939;48.720;9.166;2022-11-25T14:38:12;11.03;;;3.00;;
3847;SDS011;1939;48.720;9.166;2022-11-25T14:43:06;7.77;;;3.00;;
3847;SDS011;1939;48.720;9.166;2022-11-25T14:45:32;7.03;;;2.53;;
3847;SDS011;1939;48.720;9.166;2022-11-25T14:48:17;18.43;;;2.50;;
3847;SDS011;1939;48.720;9.166;2022-11-25T14:50:58;7.50;;;2.40;;
3847;SDS011;1939;48.720;9.166;2022-11-25T14:53:24;14.80;;;2.63;;
3847;SDS011;1939;48.720;9.166;2022-11-25T14:55:50;8.20;;;2.60;;
3847;SDS011;1939;48.720;9.166;2022-11-25T14:58:16;8.90;;;2.90;;
3847;SDS011;1939;48.720;9.166;2022-11-25T15:00:52;6.40;;;1.77;;
3847;SDS011;1939;48.720;9.166;2022-11-25T15:03:22;8.00;;;3.20;;
3847;SDS011;1939;48.720;9.166;2022-11-25T15:05:54;11.47;;;2.33;;
3847;SDS011;1939;48.720;9.166;2022-11-25T15:08:21;5.53;;;2.10;;
3847;SDS011;1939;48.720;9.166;2022-11-25T15:10:58;6.37;;;2.77;;
3847;SDS011;1939;48.720;9.166;2022-11-25T15:15:52;8.53;;;2.10;;
3847;SDS011;1939;48.720;9.166;2022-11-25T15:18:20;5.13;;;2.20;;
3847;SDS011;1939;48.720;9.166;2022-11-25T15:20:50;5.87;;;2.40;;
3847;SDS011;1939;48.720;9.166;2022-11-25T15:23:22;6.27;;;2.07;;
3847;SDS011;1939;48.720;9.166;2022-11-25T15:25:52;8.80;;;2.23;;
3847;SDS011;1939;48.720;9.166;2022-11-25T15:28:17;10.63;;;2.60;;
3847;SDS011;1939;48.720;9.166;2022-11-25T15:30:53;7.37;;;2.43;;
3847;SDS011;1939;48.720;9.166;2022-11-25T15:33:19;8.23;;;3.57;;
3847;SDS011;1939;48.720;9.166;2022-11-25T15:35:44;6.47;;;2.10;;
3847;SDS011;1939;48.720;9.166;2022-11-25T15:38:18;6.77;;;2.17;;
3847;SDS011;1939;48.720;9.166;2022-11-25T15:40:52;4.40;;;2.00;;
3847;SDS011;1939;48.720;9.166;2022-11-25T15:43:20;9.13;;;2.17;;
3847;SDS011;1939;48.720;9.166;2022-11-25T15:45:47;13.33;;;2.50;;
3847;SDS011;1939;48.720;9.166;2022-11-25T15:48:47;5.87;;;2.60;;
3847;SDS011;1939;48.720;9.166;2022-11-25T15:51:08;10.20;;;2.47;;
3847;SDS011;1939;48.720;9.166;2022-11-25T15:53:36;8.63;;;3.07;;
3847;SDS011;1939;48.720;9.166;2022-11-25T15:56:04;5.13;;;2.23;;
3847;SDS011;1939;48.720;9.166;2022-11-25T15:58:30;11.77;;;2.93;;
3847;SDS011;1939;48.720;9.166;2022-11-25T16:01:02;16.27;;;3.03;;
3847;SDS011;1939;48.720;9.166;2022-11-25T16:03:27;9.20;;;2.40;;
3847;SDS011;1939;48.720;9.166;2022-11-25T16:05:55;5.10;;;2.40;;
3847;SDS011;1939;48.720;9.166;2022-11-25T16:10:50;13.43;;;2.77;;
3847;SDS011;1939;48.720;9.166;2022-11-25T16:18:35;9.60;;;3.87;;
3847;SDS011;1939;48.720;9.166;2022-11-25T16:21:03;13.20;;;2.67;;
3847;SDS011;1939;48.720;9.166;2022-11-25T16:23:31;11.53;;;2.60;;
3847;SDS011;1939;48.720;9.166;2022-11-25T16:26:00;5.90;;;2.83;;
3847;SDS011;1939;48.720;9.166;2022-11-25T16:28:26;7.40;;;2.80;;
3847;SDS011;1939;48.720;9.166;2022-11-25T16:30:51;7.60;;;3.00;;
3847;SDS011;1939;48.720;9.166;2022-11-25T16:33:18;12.63;;;2.97;;
3847;SDS011;1939;48.720;9.166;2022-11-25T16:35:43;7.93;;;3.13;;
3847;SDS011;1939;48.720;9.166;2022-11-25T16:38:11;11.77;;;2.80;;
3847;SDS011;1939;48.720;9.166;2022-11-25T16:40:37;16.70;;;3.13;;
3847;SDS011;1939;48.720;9.166;2022-11-25T16:43:03;9.10;;;3.13;;
3847;SDS011;1939;48.720;9.166;2022-11-25T16:45:30;14.60;;;3.10;;
3847;SDS011;1939;48.720;9.166;2022-11-25T16:47:55;11.30;;;4.10;;
3847;SDS011;1939;48.720;9.166;2022-11-25T16:50:20;6.60;;;2.70;;
3847;SDS011;1939;48.720;9.166;2022-11-25T16:52:46;8.47;;;3.10;;
3847;SDS011;1939;48.720;9.166;2022-11-25T16:55:11;8.50;;;2.90;;
3847;SDS011;1939;48.720;9.166;2022-11-25T16:57:37;13.93;;;3.10;;